createdAt,value
2018-04-12T00:01:17.837Z,99.10
2018-04-12T00:03:44.295Z,98.70
2018-04-12T00:06:10.786Z,98.60
2018-04-12T00:08:37.927Z,98.60
2018-04-12T00:11:05.068Z,98.50
2018-04-12T00:13:32.249Z,98.60
2018-04-12T00:15:58.661Z,98.60
2018-04-12T00:18:25.805Z,98.90
2018-04-12T00:20:52.966Z,98.70
2018-04-12T00:23:21.258Z,98.40
2018-04-12T00:25:48.674Z,98.40
2018-04-12T00:28:15.660Z,98.80
2018-04-12T00:30:42.109Z,99.10
2018-04-12T00:33:08.629Z,98.70
2018-04-12T00:35:35.047Z,98.70
2018-04-12T00:38:02.345Z,99.30
2018-04-12T00:40:28.758Z,99.30
2018-04-12T00:42:55.957Z,99.30
2018-04-12T00:45:22.361Z,99.20
2018-04-12T00:47:48.802Z,98.90
2018-04-12T00:50:15.223Z,99.10
2018-04-12T00:52:41.679Z,99.50
2018-04-12T00:55:08.137Z,99.40
2018-04-12T00:57:35.322Z,99.50
2018-04-12T01:00:01.773Z,99.50
2018-04-12T01:02:28.198Z,99.80
2018-04-12T01:04:54.622Z,99.70
2018-04-12T01:07:21.163Z,99.70
2018-04-12T01:09:47.601Z,99.50
2018-04-12T01:12:14.152Z,99.50
2018-04-12T01:14:40.568Z,99.50
2018-04-12T01:17:06.982Z,99.40
2018-04-12T01:19:33.415Z,99.40
2018-04-12T01:21:59.817Z,99.60
2018-04-12T01:24:26.232Z,99.70
2018-04-12T01:26:52.669Z,99.60
2018-04-12T01:29:19.845Z,99.90
2018-04-12T01:31:47.021Z,99.90
2018-04-12T01:34:13.452Z,99.90
2018-04-12T01:36:40.466Z,99.90
2018-04-12T01:39:06.883Z,99.90
2018-04-12T01:41:33.306Z,99.90
2018-04-12T01:43:59.766Z,99.90
2018-04-12T01:46:26.918Z,99.90
2018-04-12T01:48:54.313Z,99.90
2018-04-12T01:51:20.798Z,99.90
2018-04-12T01:53:48.242Z,99.90
2018-04-12T01:56:14.668Z,99.90
2018-04-12T01:58:41.897Z,99.90
2018-04-12T02:01:08.321Z,99.90
2018-04-12T02:03:34.758Z,99.90
2018-04-12T02:06:01.203Z,99.90
2018-04-12T02:08:27.652Z,99.90
2018-04-12T02:10:54.142Z,99.90
2018-04-12T02:13:20.590Z,99.90
2018-04-12T02:15:47.041Z,99.90
2018-04-12T02:18:13.445Z,99.90
2018-04-12T02:20:40.844Z,99.90
2018-04-12T02:23:07.265Z,99.90
2018-04-12T02:25:33.681Z,99.90
2018-04-12T02:28:00.103Z,99.90
2018-04-12T02:30:26.653Z,99.90
2018-04-12T02:32:53.053Z,99.90
2018-04-12T02:35:20.197Z,99.90
2018-04-12T02:37:48.381Z,99.90
2018-04-12T02:40:14.790Z,99.90
2018-04-12T02:42:42.804Z,99.90
2018-04-12T02:45:09.211Z,99.90
2018-04-12T02:47:35.651Z,99.90
2018-04-12T02:50:02.738Z,99.90
2018-04-12T02:52:29.147Z,99.90
2018-04-12T02:54:55.606Z,99.90
2018-04-12T02:57:22.031Z,99.90
2018-04-12T02:59:48.469Z,99.90
2018-04-12T03:02:15.741Z,99.90
2018-04-12T03:04:42.145Z,99.90
2018-04-12T03:07:08.578Z,99.90
2018-04-12T03:09:34.992Z,99.90
2018-04-12T03:12:01.418Z,99.90
2018-04-12T03:14:28.553Z,99.90
2018-04-12T03:16:56.643Z,99.90
2018-04-12T03:19:23.083Z,99.90
2018-04-12T03:21:51.915Z,99.90
2018-04-12T03:24:19.117Z,99.90
2018-04-12T03:26:45.585Z,99.90
2018-04-12T03:29:11.990Z,99.90
2018-04-12T03:31:38.403Z,99.90
2018-04-12T03:34:05.594Z,99.90
2018-04-12T03:36:32.010Z,99.90
2018-04-12T03:38:58.532Z,99.90
2018-04-12T03:41:25.697Z,99.90
2018-04-12T03:43:52.153Z,99.90
2018-04-12T03:46:18.590Z,99.90
2018-04-12T03:48:45.202Z,99.90
2018-04-12T03:51:12.233Z,99.90
2018-04-12T03:53:38.654Z,99.90
2018-04-12T03:56:05.821Z,99.90
2018-04-12T03:58:33.314Z,99.90
2018-04-12T04:00:59.721Z,99.90
2018-04-12T04:03:26.126Z,99.90
2018-04-12T04:05:53.328Z,99.90
2018-04-12T04:08:20.427Z,99.90
2018-04-12T04:10:47.598Z,99.90
2018-04-12T04:13:14.057Z,99.90
2018-04-12T04:15:52.824Z,99.90
2018-04-12T04:18:31.485Z,99.90
2018-04-12T04:21:07.176Z,99.90
2018-04-12T04:23:33.625Z,99.90
2018-04-12T04:26:00.770Z,99.90
2018-04-12T04:28:27.839Z,99.90
2018-04-12T04:30:55.005Z,99.90
2018-04-12T04:33:21.425Z,99.90
2018-04-12T04:35:48.577Z,99.90
2018-04-12T04:38:15.723Z,99.90
2018-04-12T04:40:42.866Z,99.90
2018-04-12T04:43:09.299Z,99.90
2018-04-12T04:45:36.470Z,99.90
2018-04-12T04:48:02.921Z,99.90
2018-04-12T04:50:29.337Z,99.90
2018-04-12T04:52:55.741Z,99.90
2018-04-12T04:55:22.889Z,99.90
2018-04-12T04:57:49.367Z,99.90
2018-04-12T05:00:15.777Z,99.90
2018-04-12T05:02:42.205Z,99.90
2018-04-12T05:05:09.385Z,99.90
2018-04-12T05:07:35.835Z,99.90
2018-04-12T05:10:02.341Z,99.90
2018-04-12T05:12:29.786Z,99.90
2018-04-12T05:14:56.930Z,99.90
2018-04-12T05:17:24.123Z,99.90
2018-04-12T05:19:51.576Z,99.90
2018-04-12T05:22:18.135Z,99.90
2018-04-12T05:24:44.537Z,99.90
2018-04-12T05:27:11.001Z,99.90
2018-04-12T05:29:37.505Z,99.90
2018-04-12T05:32:03.934Z,99.90
2018-04-12T05:34:32.104Z,99.90
2018-04-12T05:36:58.527Z,99.90
2018-04-12T05:39:25.701Z,99.90
2018-04-12T05:41:52.137Z,99.90
2018-04-12T05:44:18.557Z,99.90
2018-04-12T05:46:45.717Z,99.90
2018-04-12T05:49:12.141Z,99.90
2018-04-12T05:51:38.581Z,99.90
2018-04-12T05:54:05.047Z,99.90
2018-04-12T05:56:31.461Z,99.90
2018-04-12T05:58:57.921Z,99.90
2018-04-12T06:01:24.328Z,99.90
2018-04-12T06:03:50.749Z,99.80
2018-04-12T06:06:17.208Z,99.90
2018-04-12T06:08:43.697Z,99.50
2018-04-12T06:11:10.881Z,99.50
2018-04-12T06:13:37.289Z,99.50
2018-04-12T06:16:05.021Z,99.40
2018-04-12T06:18:31.438Z,99.40
2018-04-12T06:20:57.881Z,99.50
2018-04-12T06:23:24.292Z,99.70
2018-04-12T06:25:50.709Z,99.60
2018-04-12T06:28:17.114Z,99.60
2018-04-12T06:30:44.731Z,99.60
2018-04-12T06:33:11.174Z,99.60
2018-04-12T06:35:37.619Z,99.80
2018-04-12T06:38:04.069Z,99.30
2018-04-12T06:40:31.269Z,99.00
2018-04-12T06:42:57.685Z,99.00
2018-04-12T06:45:24.113Z,98.90
2018-04-12T06:47:50.534Z,98.70
2018-04-12T06:50:16.966Z,98.20
2018-04-12T06:52:43.365Z,98.60
2018-04-12T06:55:09.785Z,98.30
2018-04-12T06:57:36.788Z,97.80
2018-04-12T07:00:03.230Z,97.50
2018-04-12T07:02:29.637Z,97.60
2018-04-12T07:04:56.065Z,97.30
2018-04-12T07:07:23.214Z,98.10
2018-04-12T07:09:50.414Z,96.60
2018-04-12T07:12:17.833Z,96.60
2018-04-12T07:14:44.238Z,96.70
2018-04-12T07:17:11.374Z,95.80
2018-04-12T07:19:37.784Z,95.80
2018-04-12T07:22:04.202Z,94.90
2018-04-12T07:24:30.627Z,94.80
2018-04-12T07:26:57.182Z,94.30
2018-04-12T07:29:23.590Z,94.00
2018-04-12T07:31:50.001Z,93.00
2018-04-12T07:34:18.190Z,92.00
2018-04-12T07:36:44.593Z,91.90
2018-04-12T07:39:11.764Z,90.80
2018-04-12T07:41:39.913Z,87.50
2018-04-12T07:44:06.310Z,87.60
2018-04-12T07:46:32.703Z,86.30
2018-04-12T07:48:59.853Z,86.70
2018-04-12T07:51:26.285Z,86.60
2018-04-12T07:53:53.459Z,85.90
2018-04-12T07:56:19.868Z,85.80
2018-04-12T07:58:48.079Z,82.70
2018-04-12T08:01:15.514Z,82.70
2018-04-12T08:03:42.955Z,83.30
2018-04-12T08:06:10.217Z,79.50
2018-04-12T08:08:36.678Z,79.40
2018-04-12T08:11:04.830Z,77.70
2018-04-12T08:13:31.328Z,76.50
2018-04-12T08:15:59.524Z,76.40
2018-04-12T08:18:27.817Z,78.20
2018-04-12T08:20:54.217Z,78.10
2018-04-12T08:23:21.386Z,74.00
2018-04-12T08:25:48.429Z,74.00
2018-04-12T08:28:14.861Z,73.00
2018-04-12T08:30:42.014Z,66.40
2018-04-12T08:33:09.157Z,64.40
2018-04-12T08:35:36.302Z,63.70
2018-04-12T08:38:03.460Z,62.60
2018-04-12T08:40:30.656Z,57.60
2018-04-12T08:42:57.054Z,57.60
2018-04-12T08:45:23.451Z,58.00
2018-04-12T08:47:50.593Z,60.90
2018-04-12T08:50:17.657Z,60.80
2018-04-12T08:52:45.813Z,59.30
2018-04-12T08:55:12.232Z,59.30
2018-04-12T08:57:39.661Z,56.60
2018-04-12T09:00:06.085Z,56.80
2018-04-12T09:02:32.480Z,55.20
2018-04-12T09:04:58.901Z,54.60
2018-04-12T09:07:25.381Z,55.60
2018-04-12T09:09:51.798Z,56.00
2018-04-12T09:12:19.993Z,55.20
2018-04-12T09:14:46.453Z,55.20
2018-04-12T09:17:12.859Z,54.40
2018-04-12T09:19:39.841Z,55.60
2018-04-12T09:22:06.253Z,58.40
2018-04-12T09:24:32.803Z,54.20
2018-04-12T09:26:59.201Z,57.70
2018-04-12T09:29:25.594Z,59.30
2018-04-12T09:31:52.004Z,53.90
2018-04-12T09:34:18.423Z,53.60
2018-04-12T09:36:44.829Z,52.60
2018-04-12T09:39:11.242Z,54.60
2018-04-12T09:41:38.397Z,52.00
2018-04-12T09:44:05.566Z,57.80
2018-04-12T09:46:32.933Z,57.70
2018-04-12T09:48:59.333Z,52.60
2018-04-12T09:51:27.487Z,51.10
2018-04-12T09:53:54.834Z,51.00
2018-04-12T09:56:22.715Z,52.40
2018-04-12T09:58:49.885Z,51.20
2018-04-12T10:01:17.404Z,51.10
2018-04-12T10:03:44.435Z,49.00
2018-04-12T10:06:10.945Z,50.90
2018-04-12T10:08:42.410Z,49.80
2018-04-12T10:11:08.834Z,49.20
2018-04-12T10:13:35.358Z,49.40
2018-04-12T10:16:01.783Z,50.90
2018-04-12T10:18:28.256Z,49.10
2018-04-12T10:20:55.253Z,48.90
2018-04-12T10:23:23.022Z,47.00
2018-04-12T10:25:50.205Z,48.70
2018-04-12T10:28:17.131Z,48.60
2018-04-12T10:30:43.554Z,47.10
2018-04-12T10:33:18.834Z,48.00
2018-04-12T10:35:45.267Z,47.90
2018-04-12T10:38:12.473Z,46.40
2018-04-12T10:40:39.619Z,45.40
2018-04-12T10:43:07.101Z,45.40
2018-04-12T10:45:33.541Z,44.50
2018-04-12T10:47:59.978Z,43.70
2018-04-12T10:50:26.382Z,44.30
2018-04-12T10:52:53.514Z,42.80
2018-04-12T10:55:20.665Z,43.50
2018-04-12T10:57:47.869Z,43.20
2018-04-12T11:00:14.289Z,43.10
2018-04-12T11:02:40.685Z,42.70
2018-04-12T11:05:07.850Z,43.70
2018-04-12T11:07:34.996Z,44.10
2018-04-12T11:10:02.170Z,42.90
2018-04-12T11:12:28.574Z,42.90
2018-04-12T11:14:54.977Z,43.00
2018-04-12T11:17:22.117Z,43.40
2018-04-12T11:19:48.549Z,43.40
2018-04-12T11:22:14.959Z,45.30
2018-04-12T11:24:41.413Z,43.90
2018-04-12T11:27:07.840Z,42.40
2018-04-12T11:29:34.246Z,41.10
2018-04-12T11:32:00.702Z,39.60
2018-04-12T11:34:27.159Z,40.50
2018-04-12T11:36:53.583Z,40.60
2018-04-12T11:39:20.009Z,39.30
2018-04-12T11:41:46.438Z,40.40
2018-04-12T11:44:13.893Z,40.80
2018-04-12T11:46:40.307Z,40.90
2018-04-12T11:49:06.791Z,40.40
2018-04-12T11:51:33.235Z,41.20
2018-04-12T11:54:00.384Z,40.70
2018-04-12T11:56:27.538Z,39.60
2018-04-12T11:58:54.702Z,40.50
2018-04-12T12:01:21.199Z,40.40
2018-04-12T12:03:47.601Z,40.70
2018-04-12T12:06:14.014Z,40.30
2018-04-12T12:08:41.182Z,37.50
2018-04-12T12:11:07.597Z,37.50
2018-04-12T12:13:35.412Z,41.00
2018-04-12T12:16:01.820Z,41.00
2018-04-12T12:18:28.229Z,39.70
2018-04-12T12:20:55.385Z,38.70
2018-04-12T12:23:22.562Z,38.00
2018-04-12T12:25:48.957Z,38.10
2018-04-12T12:28:16.110Z,41.00
2018-04-12T12:30:43.249Z,39.50
2018-04-12T12:33:09.645Z,39.50
2018-04-12T12:35:36.049Z,37.80
2018-04-12T12:38:02.509Z,39.80
2018-04-12T12:40:28.913Z,39.70
2018-04-12T12:42:55.322Z,37.10
2018-04-12T12:45:23.082Z,36.00
2018-04-12T12:47:50.265Z,38.70
2018-04-12T12:50:16.677Z,38.70
2018-04-12T12:52:43.917Z,37.10
2018-04-12T12:55:11.065Z,38.00
2018-04-12T12:57:38.205Z,38.00
2018-04-12T13:00:04.701Z,37.40
2018-04-12T13:02:31.141Z,36.70
2018-04-12T13:04:57.534Z,36.80
2018-04-12T13:07:24.680Z,36.60
2018-04-12T13:09:51.834Z,36.60
2018-04-12T13:12:18.977Z,36.60
2018-04-12T13:14:46.129Z,37.60
2018-04-12T13:17:13.281Z,35.80
2018-04-12T13:19:40.434Z,35.30
2018-04-12T13:22:07.593Z,36.30
2018-04-12T13:24:34.022Z,36.10
2018-04-12T13:27:00.453Z,35.90
2018-04-12T13:29:26.923Z,37.80
2018-04-12T13:31:53.357Z,36.50
2018-04-12T13:34:19.773Z,37.10
2018-04-12T13:36:46.186Z,36.10
2018-04-12T13:39:13.441Z,34.60
2018-04-12T13:41:39.876Z,34.60
2018-04-12T13:44:06.314Z,34.00
2018-04-12T13:46:32.705Z,33.50
2018-04-12T13:48:59.119Z,35.50
2018-04-12T13:51:25.542Z,34.40
2018-04-12T13:53:51.957Z,35.40
2018-04-12T13:56:18.381Z,36.30
2018-04-12T13:58:44.774Z,35.00
2018-04-12T14:01:12.981Z,34.00
2018-04-12T14:03:40.410Z,34.00
2018-04-12T14:06:06.846Z,35.10
2018-04-12T14:08:33.981Z,33.70
2018-04-12T14:11:00.401Z,33.60
2018-04-12T14:13:26.793Z,33.10
2018-04-12T14:15:54.228Z,33.60
2018-04-12T14:18:21.416Z,33.20
2018-04-12T14:20:47.822Z,33.00
2018-04-12T14:23:14.243Z,33.00
2018-04-12T14:25:41.393Z,30.90
2018-04-12T14:28:08.573Z,32.40
2018-04-12T14:30:34.978Z,32.40
2018-04-12T14:33:01.428Z,31.90
2018-04-12T14:35:27.833Z,31.40
2018-04-12T14:37:55.001Z,31.80
2018-04-12T14:40:21.463Z,31.70
2018-04-12T14:42:47.868Z,32.80
2018-04-12T14:45:14.331Z,31.70
2018-04-12T14:47:40.746Z,31.30
2018-04-12T14:50:07.166Z,31.20
2018-04-12T14:52:34.173Z,32.30
2018-04-12T14:55:00.581Z,33.60
2018-04-12T14:57:27.086Z,33.90
2018-04-12T14:59:53.492Z,33.70
2018-04-12T15:02:20.634Z,33.80
2018-04-12T15:04:47.131Z,33.80
2018-04-12T15:07:13.611Z,34.50
2018-04-12T15:09:40.761Z,34.70
2018-04-12T15:12:07.909Z,33.40
2018-04-12T15:14:35.041Z,33.70
2018-04-12T15:17:02.052Z,33.60
2018-04-12T15:19:28.454Z,34.70
2018-04-12T15:21:55.597Z,34.90
2018-04-12T15:24:22.793Z,35.90
2018-04-12T15:26:49.202Z,35.80
2018-04-12T15:29:15.634Z,34.80
2018-04-12T15:31:43.693Z,36.40
2018-04-12T15:34:10.109Z,35.30
2018-04-12T15:36:36.510Z,35.80
2018-04-12T15:39:02.969Z,36.80
2018-04-12T15:41:31.130Z,38.00
2018-04-12T15:43:59.013Z,37.90
2018-04-12T15:46:26.150Z,38.00
2018-04-12T15:48:52.549Z,38.00
2018-04-12T15:51:18.954Z,38.20
2018-04-12T15:53:45.358Z,38.40
2018-04-12T15:56:13.224Z,39.00
2018-04-12T15:58:40.401Z,39.50
2018-04-12T16:01:07.847Z,39.50
2018-04-12T16:03:34.990Z,40.00
2018-04-12T16:06:02.150Z,40.30
2018-04-12T16:08:28.565Z,40.20
2018-04-12T16:10:55.002Z,40.80
2018-04-12T16:13:22.141Z,41.40
2018-04-12T16:15:49.302Z,42.30
2018-04-12T16:18:16.434Z,41.60
2018-04-12T16:20:42.849Z,41.60
2018-04-12T16:23:09.921Z,42.00
2018-04-12T16:25:37.136Z,41.80
2018-04-12T16:28:04.577Z,41.80
2018-04-12T16:30:31.123Z,41.80
2018-04-12T16:32:58.554Z,42.20
2018-04-12T16:35:24.957Z,40.80
2018-04-12T16:37:51.413Z,40.90
2018-04-12T16:40:18.821Z,41.10
2018-04-12T16:42:45.237Z,41.40
2018-04-12T16:45:12.396Z,41.00
2018-04-12T16:47:38.813Z,41.60
2018-04-12T16:50:05.269Z,42.00
2018-04-12T16:52:31.703Z,42.40
2018-04-12T16:54:59.815Z,42.40
2018-04-12T16:57:26.961Z,42.60
2018-04-12T16:59:54.133Z,43.00
2018-04-12T17:02:20.545Z,42.90
2018-04-12T17:04:47.714Z,43.10
2018-04-12T17:07:15.139Z,43.10
2018-04-12T17:09:43.074Z,43.20
2018-04-12T17:12:10.248Z,43.20
2018-04-12T17:14:37.679Z,43.50
2018-04-12T17:17:04.126Z,43.50
2018-04-12T17:19:31.577Z,43.70
2018-04-12T17:21:59.125Z,44.30
2018-04-12T17:24:27.290Z,44.10
2018-04-12T17:26:53.747Z,44.10
2018-04-12T17:29:20.141Z,44.30
2018-04-12T17:31:46.565Z,44.40
2018-04-12T17:34:13.004Z,44.80
2018-04-12T17:36:39.425Z,45.00
2018-04-12T17:39:07.332Z,45.70
2018-04-12T17:41:33.838Z,45.60
2018-04-12T17:44:00.249Z,45.40
2018-04-12T17:46:28.445Z,45.80
2018-04-12T17:48:56.819Z,45.60
2018-04-12T17:51:24.289Z,45.80
2018-04-12T17:53:50.747Z,45.60
2018-04-12T17:56:18.163Z,45.90
2018-04-12T17:58:45.491Z,46.30
2018-04-12T18:01:13.645Z,46.60
2018-04-12T18:03:40.070Z,46.50
2018-04-12T18:06:06.498Z,46.40
2018-04-12T18:08:32.910Z,46.70
2018-04-12T18:10:59.338Z,46.80
2018-04-12T18:13:25.790Z,47.50
2018-04-12T18:15:52.205Z,47.60
2018-04-12T18:18:18.606Z,48.00
2018-04-12T18:20:46.772Z,48.20
2018-04-12T18:23:14.537Z,48.60
2018-04-12T18:25:42.361Z,48.60
2018-04-12T18:28:08.777Z,48.50
2018-04-12T18:30:35.301Z,48.80
2018-04-12T18:33:01.740Z,49.20
2018-04-12T18:35:28.171Z,49.10
2018-04-12T18:37:54.630Z,49.50
2018-04-12T18:40:21.044Z,49.60
2018-04-12T18:42:47.457Z,49.70
2018-04-12T18:45:13.854Z,49.90
2018-04-12T18:47:40.277Z,49.90
2018-04-12T18:50:06.709Z,50.00
2018-04-12T18:52:34.264Z,50.00
2018-04-12T18:55:01.707Z,50.10
2018-04-12T18:57:28.121Z,50.10
2018-04-12T18:59:55.526Z,50.00
2018-04-12T19:02:21.943Z,50.00
2018-04-12T19:04:49.327Z,51.00
2018-04-12T19:07:16.473Z,50.20
2018-04-12T19:09:43.732Z,50.10
2018-04-12T19:12:10.986Z,50.10
2018-04-12T19:14:37.393Z,50.10
2018-04-12T19:17:04.838Z,49.30
2018-04-12T19:19:31.309Z,49.30
2018-04-12T19:21:57.737Z,49.30
2018-04-12T19:24:24.155Z,49.90
2018-04-12T19:26:51.247Z,49.60
2018-04-12T19:29:17.753Z,48.90
2018-04-12T19:31:44.950Z,49.10
2018-04-12T19:34:12.105Z,48.90
2018-04-12T19:36:39.258Z,49.40
2018-04-12T19:39:06.533Z,49.10
2018-04-12T19:41:33.079Z,49.10
2018-04-12T19:43:59.526Z,49.20
2018-04-12T19:46:25.948Z,49.30
2018-04-12T19:48:53.001Z,49.10
2018-04-12T19:51:20.020Z,49.50
2018-04-12T19:53:46.502Z,49.80
2018-04-12T19:56:16.943Z,50.00
2018-04-12T19:58:43.546Z,49.80
2018-04-12T20:01:09.958Z,49.80
2018-04-12T20:03:36.421Z,50.00
2018-04-12T20:06:03.549Z,50.30
2018-04-12T20:08:29.973Z,50.20
2018-04-12T20:10:56.451Z,50.10
2018-04-12T20:13:23.866Z,50.50
2018-04-12T20:15:50.285Z,50.30
2018-04-12T20:18:16.702Z,50.10
2018-04-12T20:20:43.863Z,50.00
2018-04-12T20:23:11.217Z,50.90
2018-04-12T20:25:38.375Z,50.70
2018-04-12T20:28:04.819Z,50.70
2018-04-12T20:30:31.382Z,51.30
2018-04-12T20:32:57.793Z,51.50
2018-04-12T20:35:24.245Z,52.00
2018-04-12T20:37:50.657Z,51.90
2018-04-12T20:40:17.093Z,51.90
2018-04-12T20:42:44.546Z,51.50
2018-04-12T20:45:11.023Z,51.20
2018-04-12T20:47:37.533Z,51.30
2018-04-12T20:50:03.967Z,51.10
2018-04-12T20:52:30.386Z,51.10
2018-04-12T20:54:57.875Z,50.90
2018-04-12T20:57:24.288Z,51.70
2018-04-12T20:59:50.805Z,53.50
2018-04-12T21:02:18.249Z,54.90
2018-04-12T21:04:44.657Z,54.70
2018-04-12T21:07:11.097Z,55.10
2018-04-12T21:09:39.182Z,53.80
2018-04-12T21:12:06.335Z,53.50
2018-04-12T21:14:32.804Z,53.50
2018-04-12T21:16:59.313Z,55.00
2018-04-12T21:19:25.717Z,53.40
2018-04-12T21:21:52.883Z,54.30
2018-04-12T21:24:20.046Z,53.90
2018-04-12T21:26:46.447Z,53.90
2018-04-12T21:29:13.592Z,53.10
2018-04-12T21:31:40.001Z,53.00
2018-04-12T21:34:06.434Z,52.90
2018-04-12T21:36:32.868Z,53.70
2018-04-12T21:38:59.273Z,53.00
2018-04-12T21:41:25.702Z,52.60
2018-04-12T21:43:52.837Z,53.60
2018-04-12T21:46:19.249Z,54.30
2018-04-12T21:48:46.397Z,54.30
2018-04-12T21:51:13.577Z,54.00
2018-04-12T21:53:39.990Z,54.10
2018-04-12T21:56:07.167Z,55.80
2018-04-12T21:58:33.601Z,55.70
2018-04-12T22:01:00.053Z,56.60
2018-04-12T22:03:26.461Z,57.10
2018-04-12T22:05:52.918Z,60.30
2018-04-12T22:08:19.366Z,61.30
2018-04-12T22:10:45.766Z,60.80
2018-04-12T22:13:13.153Z,60.10
2018-04-12T22:15:39.614Z,58.70
2018-04-12T22:18:06.770Z,59.00
2018-04-12T22:20:33.229Z,59.10
2018-04-12T22:23:00.681Z,59.90
2018-04-12T22:25:27.109Z,59.90
2018-04-12T22:27:54.290Z,60.00
2018-04-12T22:30:20.714Z,60.00
2018-04-12T22:32:47.888Z,59.50
2018-04-12T22:35:14.314Z,58.70
2018-04-12T22:37:40.734Z,57.80
2018-04-12T22:40:08.305Z,59.30
2018-04-12T22:42:34.729Z,57.50
2018-04-12T22:45:01.276Z,57.40
2018-04-12T22:47:27.713Z,56.60
2018-04-12T22:49:54.114Z,56.30
2018-04-12T22:52:20.545Z,56.00
2018-04-12T22:54:47.013Z,55.30
2018-04-12T22:57:13.425Z,55.20
2018-04-12T22:59:39.833Z,57.70
2018-04-12T23:02:06.979Z,59.80
2018-04-12T23:04:33.408Z,59.80
2018-04-12T23:07:00.545Z,59.90
2018-04-12T23:09:27.713Z,59.90
2018-04-12T23:11:54.791Z,59.10
2018-04-12T23:14:21.193Z,57.90
2018-04-12T23:16:47.672Z,57.60
2018-04-12T23:19:14.101Z,57.70
2018-04-12T23:21:40.557Z,58.20
2018-04-12T23:24:06.973Z,57.60
2018-04-12T23:26:33.389Z,57.40
2018-04-12T23:28:59.817Z,57.80
2018-04-12T23:31:26.241Z,57.10
2018-04-12T23:33:53.245Z,58.40
2018-04-12T23:36:20.390Z,59.50
2018-04-12T23:38:46.820Z,59.50
2018-04-12T23:41:13.237Z,60.30
2018-04-12T23:43:39.638Z,60.60
2018-04-12T23:46:06.065Z,60.90
2018-04-12T23:48:32.477Z,60.50
2018-04-12T23:50:59.645Z,60.40
2018-04-12T23:53:26.066Z,60.40
2018-04-12T23:55:53.213Z,61.80
2018-04-12T23:58:21.115Z,61.80
